createdAt,value
2023-05-10T00:00:05.733Z,99007.69
2023-05-10T00:02:33.322Z,99010.78
2023-05-10T00:05:02.299Z,99003.53
2023-05-10T00:07:29.897Z,99010.97
2023-05-10T00:09:57.380Z,99004.25
2023-05-10T00:12:24.907Z,99005.00
2023-05-10T00:14:52.418Z,99010.75
2023-05-10T00:17:19.913Z,99002.31
2023-05-10T00:19:47.400Z,98998.66
2023-05-10T00:22:16.216Z,99005.13
2023-05-10T00:24:43.688Z,99007.81
2023-05-10T00:27:11.158Z,99003.44
2023-05-10T00:29:38.650Z,99002.94
2023-05-10T00:32:06.857Z,99009.28
2023-05-10T00:34:34.557Z,99006.59
2023-05-10T00:37:02.431Z,99004.88
2023-05-10T00:39:31.241Z,99002.69
2023-05-10T00:41:58.820Z,99006.22
2023-05-10T00:44:26.303Z,99000.25
2023-05-10T00:46:54.644Z,99001.47
2023-05-10T00:49:22.821Z,99009.63
2023-05-10T00:51:51.300Z,98995.31
2023-05-10T00:54:19.036Z,99003.84
2023-05-10T00:56:49.859Z,99005.09
2023-05-10T00:59:18.624Z,99003.38
2023-05-10T01:01:46.540Z,99004.84
2023-05-10T01:04:15.678Z,99000.47
2023-05-10T01:06:43.407Z,99000.94
2023-05-10T01:09:12.547Z,98998.47
2023-05-10T01:11:41.860Z,99005.03
2023-05-10T01:14:10.794Z,99003.03
2023-05-10T01:16:40.887Z,99001.06
2023-05-10T01:19:14.796Z,99007.53
2023-05-10T01:21:50.403Z,99008.13
2023-05-10T01:24:41.933Z,99005.59
2023-05-10T01:27:26.214Z,99006.53
2023-05-10T01:30:44.834Z,99007.28
2023-05-10T01:33:19.932Z,99014.63
2023-05-10T01:35:49.769Z,99018.78
2023-05-10T01:38:21.065Z,99015.72
2023-05-10T01:40:59.180Z,99020.22
2023-05-10T01:43:30.793Z,99017.69
2023-05-10T01:46:05.447Z,99024.63
2023-05-10T01:48:35.310Z,99028.78
2023-05-10T01:51:02.795Z,99027.81
2023-05-10T01:53:31.216Z,99025.38
2023-05-10T01:56:00.811Z,99024.41
2023-05-10T01:58:32.223Z,99028.53
2023-05-10T02:01:02.548Z,99024.63
2023-05-10T02:03:31.685Z,99030.38
2023-05-10T02:06:01.172Z,99031.59
2023-05-10T02:08:29.141Z,99035.38
2023-05-10T02:10:58.345Z,99035.59
2023-05-10T02:13:27.654Z,99035.72
2023-05-10T02:15:57.031Z,99045.25
2023-05-10T02:18:25.826Z,99044.16
2023-05-10T02:20:55.963Z,99050.25
2023-05-10T02:23:25.575Z,99048.03
2023-05-10T02:25:54.148Z,99044.03
2023-05-10T02:28:22.996Z,99039.16
2023-05-10T02:30:51.474Z,99050.97
2023-05-10T02:33:20.252Z,99050.25
2023-05-10T02:35:48.870Z,99056.22
2023-05-10T02:38:17.819Z,99054.16
2023-05-10T02:40:48.256Z,99056.47
2023-05-10T02:43:18.920Z,99059.75
2023-05-10T02:45:49.930Z,99061.44
2023-05-10T02:48:18.491Z,99058.41
2023-05-10T02:50:47.637Z,99069.75
2023-05-10T02:53:20.352Z,99066.59
2023-05-10T02:55:53.509Z,99065.84
2023-05-10T02:58:21.760Z,99066.44
2023-05-10T03:00:49.259Z,99063.28
2023-05-10T03:03:16.666Z,99065.81
2023-05-10T03:05:44.162Z,99070.75
2023-05-10T03:08:11.971Z,99067.28
2023-05-10T03:10:57.546Z,99067.31
2023-05-10T03:13:30.920Z,99067.91
2023-05-10T03:16:01.363Z,99065.63
2023-05-10T03:18:35.857Z,99064.41
2023-05-10T03:21:06.541Z,99065.84
2023-05-10T03:23:37.853Z,99069.25
2023-05-10T03:26:07.219Z,99073.16
2023-05-10T03:28:36.589Z,99077.34
2023-05-10T03:31:06.268Z,99079.84
2023-05-10T03:33:33.869Z,99082.88
2023-05-10T03:36:01.346Z,99085.22
2023-05-10T03:38:30.531Z,99080.97
2023-05-10T03:40:58.192Z,99076.66
2023-05-10T03:43:27.068Z,99081.25
2023-05-10T03:45:54.716Z,99083.25
2023-05-10T03:48:22.203Z,99083.56
2023-05-10T03:50:50.194Z,99093.94
2023-05-10T03:53:17.674Z,99089.19
2023-05-10T03:55:45.735Z,99091.34
2023-05-10T03:58:13.546Z,99094.72
2023-05-10T04:00:44.710Z,99095.47
2023-05-10T04:03:12.490Z,99091.81
2023-05-10T04:05:40.302Z,99093.69
2023-05-10T04:08:08.218Z,99090.41
2023-05-10T04:10:35.728Z,99099.72
2023-05-10T04:13:03.234Z,99091.38
2023-05-10T04:15:30.701Z,99098.16
2023-05-10T04:17:59.556Z,99095.53
2023-05-10T04:20:27.028Z,99099.31
2023-05-10T04:22:54.528Z,99097.88
2023-05-10T04:25:22.057Z,99093.16
2023-05-10T04:27:49.533Z,99095.13
2023-05-10T04:30:17.536Z,99094.09
2023-05-10T04:32:45.277Z,99101.66
2023-05-10T04:35:15.712Z,99102.41
2023-05-10T04:37:44.043Z,99102.91
2023-05-10T04:40:12.303Z,99100.66
2023-05-10T04:42:41.994Z,99098.03
2023-05-10T04:45:11.352Z,99106.28
2023-05-10T04:47:38.882Z,99101.44
2023-05-10T04:50:08.177Z,99103.41
2023-05-10T04:52:37.296Z,99118.50
2023-05-10T04:55:05.517Z,99115.00
2023-05-10T04:57:33.025Z,99119.00
2023-05-10T05:00:01.795Z,99115.94
2023-05-10T05:02:29.316Z,99121.41
2023-05-10T05:04:58.649Z,99116.78
2023-05-10T05:07:26.206Z,99121.94
2023-05-10T05:09:55.342Z,99123.41
2023-05-10T05:12:22.817Z,99129.25
2023-05-10T05:14:50.295Z,99127.66
2023-05-10T05:17:17.802Z,99135.59
2023-05-10T05:19:45.213Z,99143.28
2023-05-10T05:22:12.676Z,99129.75
2023-05-10T05:24:40.137Z,99135.25
2023-05-10T05:27:08.972Z,99134.50
2023-05-10T05:29:36.435Z,99130.69
2023-05-10T05:32:04.216Z,99142.28
2023-05-10T05:34:31.771Z,99142.19
2023-05-10T05:36:59.216Z,99139.22
2023-05-10T05:39:26.613Z,99138.97
2023-05-10T05:41:54.071Z,99146.31
2023-05-10T05:44:22.830Z,99146.44
2023-05-10T05:46:50.294Z,99143.56
2023-05-10T05:49:17.788Z,99151.31
2023-05-10T05:51:45.398Z,99152.44
2023-05-10T05:54:12.802Z,99146.72
2023-05-10T05:56:40.237Z,99153.66
2023-05-10T05:59:07.694Z,99160.84
2023-05-10T06:01:36.467Z,99159.03
2023-05-10T06:04:04.102Z,99152.78
2023-05-10T06:06:33.121Z,99156.56
2023-05-10T06:09:00.655Z,99159.31
2023-05-10T06:11:28.124Z,99168.06
2023-05-10T06:13:55.627Z,99180.63
2023-05-10T06:16:23.338Z,99176.25
2023-05-10T06:18:52.226Z,99182.44
2023-05-10T06:21:19.707Z,99188.38
2023-05-10T06:23:47.206Z,99197.16
2023-05-10T06:26:14.841Z,99196.44
2023-05-10T06:28:42.368Z,99201.19
2023-05-10T06:31:09.861Z,99198.13
2023-05-10T06:33:37.334Z,99198.13
2023-05-10T06:36:06.818Z,99195.81
2023-05-10T06:38:34.292Z,99204.94
2023-05-10T06:41:01.770Z,99198.00
2023-05-10T06:43:29.535Z,99207.66
2023-05-10T06:45:57.019Z,99194.59
2023-05-10T06:48:24.585Z,99208.41
2023-05-10T06:50:52.064Z,99208.88
2023-05-10T06:53:21.275Z,99205.94
2023-05-10T06:55:48.760Z,99205.94
2023-05-10T06:58:16.235Z,99200.09
2023-05-10T07:00:44.686Z,99201.78
2023-05-10T07:03:12.605Z,99202.28
2023-05-10T07:05:40.258Z,99209.72
2023-05-10T07:08:07.807Z,99201.25
2023-05-10T07:10:36.676Z,99204.66
2023-05-10T07:13:04.199Z,99200.59
2023-05-10T07:15:31.769Z,99216.13
2023-05-10T07:17:59.371Z,99219.56
2023-05-10T07:20:26.921Z,99217.50
2023-05-10T07:22:54.357Z,99215.59
2023-05-10T07:25:21.979Z,99209.34
2023-05-10T07:27:51.838Z,99217.19
2023-05-10T07:30:19.574Z,99208.88
2023-05-10T07:32:47.093Z,99222.47
2023-05-10T07:35:14.721Z,99217.28
2023-05-10T07:37:42.384Z,99215.28
2023-05-10T07:40:10.920Z,99219.22
2023-05-10T07:42:39.318Z,99217.44
2023-05-10T07:45:10.335Z,99215.88
2023-05-10T07:47:37.818Z,99223.69
2023-05-10T07:50:06.237Z,99212.47
2023-05-10T07:52:33.691Z,99219.63
2023-05-10T07:55:01.155Z,99226.41
2023-05-10T07:57:28.624Z,99226.09
2023-05-10T07:59:56.183Z,99229.75
2023-05-10T08:02:25.177Z,99231.56
2023-05-10T08:04:52.969Z,99227.53
2023-05-10T08:07:20.510Z,99236.44
2023-05-10T08:09:48.153Z,99240.00
2023-05-10T08:12:15.603Z,99238.66
2023-05-10T08:14:43.203Z,99240.16
2023-05-10T08:17:11.031Z,99242.34
2023-05-10T08:19:39.965Z,99248.69
2023-05-10T08:22:07.535Z,99249.94
2023-05-10T08:24:39.093Z,99256.50
2023-05-10T08:27:06.815Z,99258.78
2023-05-10T08:29:46.221Z,99255.28
2023-05-10T08:32:17.324Z,99258.94
2023-05-10T08:34:46.212Z,99258.41
2023-05-10T08:37:14.356Z,99273.75
2023-05-10T08:39:42.229Z,99268.19
2023-05-10T08:42:10.836Z,99280.69
2023-05-10T08:44:38.898Z,99278.53
2023-05-10T08:47:08.530Z,99275.50
2023-05-10T08:49:36.371Z,99277.31
2023-05-10T08:52:06.361Z,99275.13
2023-05-10T08:54:34.503Z,99277.69
2023-05-10T08:57:02.082Z,99282.75
2023-05-10T08:59:29.664Z,99277.09
2023-05-10T09:02:00.409Z,99275.69
2023-05-10T09:04:28.209Z,99280.19
2023-05-10T09:06:56.405Z,99280.25
2023-05-10T09:09:27.085Z,99284.88
2023-05-10T09:11:55.746Z,99287.94
2023-05-10T09:14:26.399Z,99289.03
2023-05-10T09:16:56.076Z,99301.00
2023-05-10T09:19:23.647Z,99306.44
2023-05-10T09:21:51.138Z,99303.66
2023-05-10T09:24:18.645Z,99300.81
2023-05-10T09:26:50.692Z,99299.38
2023-05-10T09:29:18.217Z,99292.56
2023-05-10T09:31:48.310Z,99289.34
2023-05-10T09:34:20.339Z,99298.03
2023-05-10T09:36:57.170Z,99293.69
2023-05-10T09:39:33.187Z,99299.09
2023-05-10T09:42:05.588Z,99301.56
2023-05-10T09:44:33.409Z,99286.50
2023-05-10T09:47:00.909Z,99289.75
2023-05-10T09:49:28.514Z,99302.69
2023-05-10T09:52:04.246Z,99291.91
2023-05-10T09:54:32.189Z,99303.69
2023-05-10T09:56:59.657Z,99302.84
2023-05-10T09:59:30.078Z,99312.34
2023-05-10T10:01:58.620Z,99303.28
2023-05-10T10:04:26.472Z,99304.41
2023-05-10T10:07:04.997Z,99305.13
2023-05-10T10:09:33.471Z,99312.91
2023-05-10T10:12:01.627Z,99311.91
2023-05-10T10:14:32.015Z,99312.06
2023-05-10T10:19:35.225Z,99302.69
2023-05-10T10:22:03.685Z,99308.94
2023-05-10T10:24:31.274Z,99315.31
2023-05-10T10:27:07.472Z,99315.03
2023-05-10T10:29:41.546Z,99323.47
2023-05-10T10:32:19.459Z,99329.38
2023-05-10T10:34:47.178Z,99331.31
2023-05-10T10:37:14.640Z,99327.63
2023-05-10T10:39:42.091Z,99334.84
2023-05-10T10:42:09.620Z,99330.09
2023-05-10T10:44:42.760Z,99323.44
2023-05-10T10:47:30.562Z,99332.25
2023-05-10T10:50:06.094Z,99335.34
2023-05-10T10:52:35.081Z,99326.66
2023-05-10T10:55:05.123Z,99331.41
2023-05-10T10:57:45.163Z,99325.44
2023-05-10T11:00:28.779Z,99325.59
2023-05-10T11:02:59.437Z,99321.03
2023-05-10T11:05:38.613Z,99333.13
2023-05-10T11:08:12.313Z,99336.03
2023-05-10T11:10:40.979Z,99347.88
2023-05-10T11:13:09.509Z,99348.53
2023-05-10T11:15:39.734Z,99343.16
2023-05-10T11:18:20.740Z,99347.97
2023-05-10T11:20:53.428Z,99344.84
2023-05-10T11:23:21.974Z,99354.97
2023-05-10T11:25:50.799Z,99349.59
2023-05-10T11:28:20.812Z,99352.00
2023-05-10T11:30:50.202Z,99359.03
2023-05-10T11:33:20.305Z,99361.91
2023-05-10T11:35:48.253Z,99379.22
2023-05-10T11:38:16.262Z,99362.69
2023-05-10T11:40:44.029Z,99370.25
2023-05-10T11:43:13.029Z,99376.44
2023-05-10T11:45:43.193Z,99378.56
2023-05-10T11:48:12.454Z,99376.97
2023-05-10T11:50:40.265Z,99373.03
2023-05-10T11:53:07.841Z,99371.16
2023-05-10T11:55:35.903Z,99377.41
2023-05-10T11:58:04.375Z,99379.06
2023-05-10T12:00:33.188Z,99373.31
2023-05-10T12:03:03.736Z,99380.47
2023-05-10T12:05:35.225Z,99380.19
2023-05-10T12:08:16.430Z,99380.28
2023-05-10T12:10:43.895Z,99383.97
2023-05-10T12:13:16.222Z,99381.13
2023-05-10T12:15:44.663Z,99389.41
2023-05-10T12:18:13.248Z,99381.97
2023-05-10T12:20:43.396Z,99389.91
2023-05-10T12:23:11.771Z,99386.50
2023-05-10T12:25:40.964Z,99382.28
2023-05-10T12:28:10.768Z,99390.09
2023-05-10T12:30:39.613Z,99387.16
2023-05-10T12:33:10.962Z,99379.75
2023-05-10T12:35:48.197Z,99391.97
2023-05-10T12:38:30.712Z,99390.09
2023-05-10T12:40:59.331Z,99389.84
2023-05-10T12:43:26.916Z,99385.47
2023-05-10T12:45:54.749Z,99395.38
2023-05-10T12:48:22.313Z,99397.94
2023-05-10T12:50:51.217Z,99400.78
2023-05-10T12:53:18.820Z,99399.22
2023-05-10T12:55:46.576Z,99392.22
2023-05-10T12:58:27.531Z,99409.56
2023-05-10T13:01:01.603Z,99405.78
2023-05-10T13:03:29.083Z,99409.06
2023-05-10T13:05:57.940Z,99414.00
2023-05-10T13:08:25.892Z,99399.63
2023-05-10T13:10:54.095Z,99406.09
2023-05-10T13:13:21.625Z,99398.66
2023-05-10T13:15:49.116Z,99401.97
2023-05-10T13:18:16.689Z,99403.31
2023-05-10T13:20:45.134Z,99403.97
2023-05-10T13:23:13.993Z,99408.69
2023-05-10T13:25:41.478Z,99402.72
2023-05-10T13:28:09.020Z,99400.09
2023-05-10T13:30:36.732Z,99399.28
2023-05-10T13:33:04.191Z,99396.41
2023-05-10T13:35:31.685Z,99399.16
2023-05-10T13:37:59.143Z,99397.03
2023-05-10T13:40:28.981Z,99391.13
2023-05-10T13:42:56.437Z,99394.97
2023-05-10T13:45:24.010Z,99397.03
2023-05-10T13:47:51.717Z,99407.78
2023-05-10T13:50:19.404Z,99399.09
2023-05-10T13:52:46.887Z,99392.72
2023-05-10T13:55:15.025Z,99399.28
2023-05-10T13:57:44.211Z,99395.66
2023-05-10T14:00:12.701Z,99387.66
2023-05-10T14:02:40.393Z,99389.16
2023-05-10T14:05:08.418Z,99390.84
2023-05-10T14:07:35.883Z,99392.41
2023-05-10T14:10:03.750Z,99383.41
2023-05-10T14:12:31.250Z,99388.84
2023-05-10T14:15:00.065Z,99382.09
2023-05-10T14:17:27.832Z,99383.31
2023-05-10T14:19:55.324Z,99374.59
2023-05-10T14:22:23.482Z,99380.56
2023-05-10T14:24:51.082Z,99376.31
2023-05-10T14:27:18.898Z,99370.75
2023-05-10T14:29:46.507Z,99370.59
2023-05-10T14:32:15.371Z,99377.38
2023-05-10T14:34:43.154Z,99371.59
2023-05-10T14:37:12.357Z,99380.28
2023-05-10T14:39:39.971Z,99362.66
2023-05-10T14:42:07.520Z,99372.81
2023-05-10T14:44:35.030Z,99373.34
2023-05-10T14:47:02.543Z,99374.16
2023-05-10T14:49:31.329Z,99381.94
2023-05-10T14:51:58.821Z,99383.44
2023-05-10T14:54:26.824Z,99379.97
2023-05-10T14:56:54.327Z,99384.13
2023-05-10T14:59:22.518Z,99387.00
2023-05-10T15:01:50.479Z,99380.03
2023-05-10T15:04:18.520Z,99383.00
2023-05-10T15:06:47.787Z,99381.91
2023-05-10T15:09:16.474Z,99376.41
2023-05-10T15:11:45.314Z,99378.19
2023-05-10T15:14:12.743Z,99374.13
2023-05-10T15:16:40.376Z,99372.88
2023-05-10T15:19:08.015Z,99379.19
2023-05-10T15:21:39.628Z,99361.38
2023-05-10T15:24:08.626Z,99377.13
2023-05-10T15:26:36.178Z,99376.97
2023-05-10T15:29:03.705Z,99378.09
2023-05-10T15:31:31.163Z,99384.91
2023-05-10T15:33:59.817Z,99382.91
2023-05-10T15:36:27.270Z,99383.34
2023-05-10T15:38:55.500Z,99388.09
2023-05-10T15:41:25.508Z,99394.31
2023-05-10T15:43:53.007Z,99391.16
2023-05-10T15:46:20.627Z,99381.50
2023-05-10T15:48:48.153Z,99390.97
2023-05-10T15:51:15.723Z,99391.50
2023-05-10T15:53:53.106Z,99390.06
2023-05-10T15:56:26.605Z,99395.25
2023-05-10T15:58:54.059Z,99393.16
2023-05-10T16:01:21.881Z,99395.53
2023-05-10T16:03:49.421Z,99398.81
2023-05-10T16:06:16.969Z,99392.84
2023-05-10T16:08:44.433Z,99400.56
2023-05-10T16:11:11.948Z,99401.91
2023-05-10T16:13:40.817Z,99400.38
2023-05-10T16:16:09.448Z,99403.78
2023-05-10T16:18:37.039Z,99406.19
2023-05-10T16:21:04.775Z,99404.03
2023-05-10T16:23:32.341Z,99401.34
2023-05-10T16:25:59.797Z,99405.34
2023-05-10T16:28:27.285Z,99404.84
2023-05-10T16:30:56.085Z,99411.22
2023-05-10T16:33:23.641Z,99414.34
2023-05-10T16:35:51.099Z,99416.25
2023-05-10T16:38:18.565Z,99414.69
2023-05-10T16:40:46.025Z,99420.13
2023-05-10T16:43:13.572Z,99413.59
2023-05-10T16:45:42.116Z,99414.44
2023-05-10T16:48:10.962Z,99422.13
2023-05-10T16:50:38.434Z,99425.53
2023-05-10T16:53:05.915Z,99433.72
2023-05-10T16:55:33.406Z,99426.94
2023-05-10T16:58:02.749Z,99424.69
2023-05-10T17:00:30.411Z,99434.41
2023-05-10T17:02:57.991Z,99433.06
2023-05-10T17:05:27.035Z,99443.16
2023-05-10T17:07:54.548Z,99437.94
2023-05-10T17:10:22.057Z,99443.94
2023-05-10T17:12:49.533Z,99438.25
2023-05-10T17:15:19.160Z,99442.25
2023-05-10T17:17:47.585Z,99439.81
2023-05-10T17:20:15.058Z,99441.84
2023-05-10T17:22:43.900Z,99441.47
2023-05-10T17:25:12.735Z,99453.69
2023-05-10T17:27:40.329Z,99469.50
2023-05-10T17:30:08.931Z,99456.78
2023-05-10T17:32:36.465Z,99469.16
2023-05-10T17:35:05.027Z,99467.63
2023-05-10T17:37:34.580Z,99475.41
2023-05-10T17:40:05.692Z,99476.00
2023-05-10T17:42:33.452Z,99485.44
2023-05-10T17:45:01.191Z,99482.38
2023-05-10T17:47:28.731Z,99483.34
2023-05-10T17:49:56.232Z,99484.72
2023-05-10T17:52:23.708Z,99496.22
2023-05-10T17:54:51.241Z,99497.00
2023-05-10T17:57:20.674Z,99498.50
2023-05-10T17:59:48.187Z,99494.66
2023-05-10T18:02:15.675Z,99505.28
2023-05-10T18:04:43.264Z,99514.56
2023-05-10T18:07:10.805Z,99513.09
2023-05-10T18:09:38.270Z,99514.03
2023-05-10T18:12:06.585Z,99524.88
2023-05-10T18:14:41.000Z,99515.91
2023-05-10T18:17:09.044Z,99514.38
2023-05-10T18:19:36.654Z,99519.81
2023-05-10T18:22:04.145Z,99524.84
2023-05-10T18:24:38.334Z,99519.44
2023-05-10T18:27:07.480Z,99519.22
2023-05-10T18:29:36.735Z,99524.34
2023-05-10T18:32:04.359Z,99526.56
2023-05-10T18:34:31.862Z,99526.81
2023-05-10T18:37:00.000Z,99534.41
2023-05-10T18:39:27.570Z,99529.63
2023-05-10T18:41:55.086Z,99535.41
2023-05-10T18:44:25.806Z,99531.72
2023-05-10T18:46:55.372Z,99528.03
2023-05-10T18:49:23.766Z,99535.38
2023-05-10T18:51:51.369Z,99535.91
2023-05-10T18:54:18.906Z,99535.06
2023-05-10T18:56:46.466Z,99536.72
2023-05-10T18:59:14.204Z,99537.44
2023-05-10T19:01:42.218Z,99540.19
2023-05-10T19:04:11.098Z,99544.94
2023-05-10T19:06:38.763Z,99538.22
2023-05-10T19:09:06.241Z,99546.69
2023-05-10T19:11:34.448Z,99557.75
2023-05-10T19:14:02.244Z,99559.34
2023-05-10T19:16:30.643Z,99557.63
2023-05-10T19:18:58.365Z,99566.03
2023-05-10T19:21:27.523Z,99557.16
2023-05-10T19:23:56.709Z,99563.28
2023-05-10T19:26:24.488Z,99564.22
2023-05-10T19:28:52.681Z,99565.19
2023-05-10T19:31:20.525Z,99568.44
2023-05-10T19:33:48.113Z,99572.81
2023-05-10T19:36:15.651Z,99576.59
2023-05-10T19:38:44.543Z,99571.00
2023-05-10T19:41:12.922Z,99577.97
2023-05-10T19:43:41.683Z,99573.47
2023-05-10T19:46:09.921Z,99578.84
2023-05-10T19:48:37.485Z,99575.88
2023-05-10T19:51:07.846Z,99578.47
2023-05-10T19:53:37.606Z,99572.38
2023-05-10T19:56:07.434Z,99574.22
2023-05-10T19:58:35.292Z,99586.09
2023-05-10T20:01:03.679Z,99582.56
2023-05-10T20:03:31.295Z,99580.63
2023-05-10T20:05:58.776Z,99577.63
2023-05-10T20:08:26.259Z,99584.06
2023-05-10T20:10:53.748Z,99576.75
2023-05-10T20:13:22.538Z,99575.91
2023-05-10T20:15:50.008Z,99570.88
2023-05-10T20:18:17.560Z,99578.06
2023-05-10T20:20:46.100Z,99580.59
2023-05-10T20:23:14.896Z,99581.16
2023-05-10T20:25:42.692Z,99570.84
2023-05-10T20:28:10.818Z,99576.56
2023-05-10T20:30:40.739Z,99580.53
2023-05-10T20:33:09.174Z,99585.63
2023-05-10T20:35:36.772Z,99592.75
2023-05-10T20:38:04.239Z,99589.84
2023-05-10T20:40:32.715Z,99591.31
2023-05-10T20:43:00.231Z,99585.25
2023-05-10T20:45:27.709Z,99588.31
2023-05-10T20:47:56.984Z,99584.91
2023-05-10T20:50:24.928Z,99591.59
2023-05-10T20:52:52.399Z,99584.47
2023-05-10T20:55:19.907Z,99580.22
2023-05-10T20:57:47.423Z,99579.56
2023-05-10T21:00:15.852Z,99580.72
2023-05-10T21:02:45.260Z,99578.59
2023-05-10T21:05:14.233Z,99583.44
2023-05-10T21:07:41.795Z,99577.59
2023-05-10T21:10:11.248Z,99579.72
2023-05-10T21:12:38.758Z,99582.28
2023-05-10T21:15:07.090Z,99582.72
2023-05-10T21:17:34.590Z,99582.56
2023-05-10T21:20:02.072Z,99585.63
2023-05-10T21:22:30.868Z,99583.03
2023-05-10T21:24:58.324Z,99578.72
2023-05-10T21:27:25.948Z,99578.28
2023-05-10T21:29:53.529Z,99584.16
2023-05-10T21:32:21.015Z,99581.66
2023-05-10T21:34:48.547Z,99587.78
2023-05-10T21:37:16.632Z,99578.09
2023-05-10T21:39:45.448Z,99584.16
2023-05-10T21:42:12.887Z,99579.66
2023-05-10T21:44:40.349Z,99576.81
2023-05-10T21:47:07.881Z,99582.13
2023-05-10T21:49:35.301Z,99579.91
2023-05-10T21:52:02.732Z,99576.81
2023-05-10T21:54:30.219Z,99581.47
2023-05-10T21:56:58.992Z,99587.25
2023-05-10T21:59:26.480Z,99575.91
2023-05-10T22:01:53.944Z,99583.09
2023-05-10T22:04:21.885Z,99585.88
2023-05-10T22:06:49.951Z,99590.31
2023-05-10T22:09:17.456Z,99587.94
2023-05-10T22:11:44.940Z,99583.94
2023-05-10T22:14:13.779Z,99579.00
2023-05-10T22:16:41.340Z,99583.72
2023-05-10T22:19:08.962Z,99593.38
2023-05-10T22:21:36.503Z,99594.56
2023-05-10T22:24:04.141Z,99591.13
2023-05-10T22:26:31.627Z,99589.88
2023-05-10T22:28:59.116Z,99600.59
2023-05-10T22:31:28.091Z,99589.53
2023-05-10T22:33:55.667Z,99591.78
2023-05-10T22:36:23.184Z,99592.53
2023-05-10T22:38:50.669Z,99592.00
2023-05-10T22:41:18.170Z,99599.72
2023-05-10T22:43:45.834Z,99600.13
2023-05-10T22:46:13.430Z,99594.47
2023-05-10T22:48:43.706Z,99591.03
2023-05-10T22:51:11.920Z,99594.84
2023-05-10T22:53:39.465Z,99591.22
2023-05-10T22:56:07.348Z,99593.38
2023-05-10T22:58:35.031Z,99596.59
2023-05-10T23:01:02.503Z,99593.84
2023-05-10T23:03:32.463Z,99609.22
2023-05-10T23:06:01.311Z,99598.09
2023-05-10T23:08:28.826Z,99599.72
2023-05-10T23:10:56.753Z,99603.94
2023-05-10T23:13:24.735Z,99603.22
2023-05-10T23:15:52.242Z,99612.31
2023-05-10T23:18:19.779Z,99609.06
2023-05-10T23:20:47.249Z,99616.28
2023-05-10T23:23:16.587Z,99616.63
2023-05-10T23:25:44.026Z,99611.13
2023-05-10T23:28:11.506Z,99612.13
2023-05-10T23:30:38.972Z,99609.59
2023-05-10T23:33:06.481Z,99607.31
2023-05-10T23:35:33.934Z,99609.31
2023-05-10T23:38:01.981Z,99609.31
2023-05-10T23:40:30.912Z,99613.47
2023-05-10T23:42:58.381Z,99608.25
2023-05-10T23:45:26.084Z,99608.91
2023-05-10T23:47:53.609Z,99601.13
2023-05-10T23:50:21.361Z,99600.88
2023-05-10T23:52:49.080Z,99592.63
2023-05-10T23:55:16.804Z,99595.13
2023-05-10T23:57:45.590Z,99591.72
